createdAt,value
2023-05-02T00:00:10.013Z,16.00
2023-05-02T00:02:38.285Z,15.90
2023-05-02T00:05:07.760Z,15.90
2023-05-02T00:07:37.016Z,15.80
2023-05-02T00:10:06.109Z,15.70
2023-05-02T00:12:35.989Z,15.70
2023-05-02T00:15:04.169Z,15.60
2023-05-02T00:17:32.426Z,15.60
2023-05-02T00:20:01.557Z,15.60
2023-05-02T00:22:29.878Z,15.50
2023-05-02T00:24:58.695Z,15.50
2023-05-02T00:27:26.883Z,15.50
2023-05-02T00:29:56.354Z,15.50
2023-05-02T00:32:24.486Z,15.40
2023-05-02T00:34:52.611Z,15.50
2023-05-02T00:37:21.147Z,15.40
2023-05-02T00:39:49.260Z,15.40
2023-05-02T00:42:17.286Z,15.30
2023-05-02T00:44:45.506Z,15.40
2023-05-02T00:47:16.246Z,15.30
2023-05-02T00:49:44.365Z,15.30
2023-05-02T00:52:12.390Z,15.30
2023-05-02T00:54:40.649Z,15.20
2023-05-02T00:57:08.799Z,15.20
2023-05-02T00:59:37.670Z,15.20
2023-05-02T01:02:20.042Z,15.20
2023-05-02T01:05:01.228Z,15.20
2023-05-02T01:07:46.635Z,15.10
2023-05-02T01:10:24.726Z,15.20
2023-05-02T01:13:00.551Z,15.10
2023-05-02T01:15:29.373Z,15.10
2023-05-02T01:18:01.866Z,15.10
2023-05-02T01:20:33.066Z,15.10
2023-05-02T01:23:08.437Z,15.00
2023-05-02T01:25:49.404Z,15.00
2023-05-02T01:28:29.351Z,15.00
2023-05-02T01:30:59.337Z,15.00
2023-05-02T01:33:29.492Z,15.00
2023-05-02T01:35:58.685Z,15.00
2023-05-02T01:38:28.642Z,15.00
2023-05-02T01:41:03.349Z,15.00
2023-05-02T01:43:33.826Z,15.00
2023-05-02T01:46:04.456Z,15.00
2023-05-02T01:48:33.773Z,15.10
2023-05-02T01:51:03.587Z,15.10
2023-05-02T01:53:34.913Z,15.10
2023-05-02T01:56:04.092Z,15.10
2023-05-02T01:58:33.284Z,15.10
2023-05-02T02:01:04.428Z,15.10
2023-05-02T02:03:33.966Z,15.10
2023-05-02T02:06:04.022Z,15.10
2023-05-02T02:08:32.110Z,15.10
2023-05-02T02:11:04.338Z,15.10
2023-05-02T02:13:36.837Z,15.10
2023-05-02T02:16:09.446Z,15.00
2023-05-02T02:18:40.016Z,15.00
2023-05-02T02:21:10.789Z,15.00
2023-05-02T02:23:43.370Z,15.00
2023-05-02T02:26:12.098Z,14.90
2023-05-02T02:28:41.172Z,14.90
2023-05-02T02:31:10.962Z,14.80
2023-05-02T02:33:39.569Z,14.80
2023-05-02T02:36:13.058Z,14.80
2023-05-02T02:38:47.268Z,14.70
2023-05-02T02:41:23.377Z,14.70
2023-05-02T02:44:01.614Z,14.70
2023-05-02T02:46:48.058Z,14.60
2023-05-02T02:49:25.859Z,14.60
2023-05-02T02:51:59.485Z,14.50
2023-05-02T02:54:34.516Z,14.50
2023-05-02T02:57:08.718Z,14.50
2023-05-02T02:59:41.757Z,14.40
2023-05-02T03:02:16.162Z,14.40
2023-05-02T03:04:46.521Z,14.40
2023-05-02T03:07:15.041Z,14.40
2023-05-02T03:09:43.637Z,14.30
2023-05-02T03:12:11.911Z,14.40
2023-05-02T03:14:40.670Z,14.40
2023-05-02T03:17:10.584Z,14.40
2023-05-02T03:19:38.808Z,14.40
2023-05-02T03:22:07.109Z,14.40
2023-05-02T03:24:35.148Z,14.40
2023-05-02T03:27:03.207Z,14.30
2023-05-02T03:29:31.296Z,14.30
2023-05-02T03:31:59.382Z,14.30
2023-05-02T03:34:28.956Z,14.30
2023-05-02T03:36:57.038Z,14.30
2023-05-02T03:39:25.111Z,14.30
2023-05-02T03:41:53.566Z,14.20
2023-05-02T03:44:21.625Z,14.20
2023-05-02T03:46:49.692Z,14.20
2023-05-02T03:49:19.605Z,14.20
2023-05-02T03:51:49.206Z,14.20
2023-05-02T03:54:17.700Z,14.20
2023-05-02T03:56:47.028Z,14.20
2023-05-02T03:59:15.844Z,14.20
2023-05-02T04:01:43.894Z,14.20
2023-05-02T04:04:12.467Z,14.10
2023-05-02T04:06:40.635Z,14.10
2023-05-02T04:09:10.097Z,14.10
2023-05-02T04:11:38.166Z,14.10
2023-05-02T04:14:06.204Z,14.10
2023-05-02T04:16:34.306Z,14.10
2023-05-02T04:19:02.344Z,14.00
2023-05-02T04:21:30.339Z,14.00
2023-05-02T04:23:58.422Z,14.00
2023-05-02T04:26:27.940Z,13.90
2023-05-02T04:28:55.969Z,13.90
2023-05-02T04:31:24.112Z,13.90
2023-05-02T04:33:52.343Z,13.90
2023-05-02T04:36:20.504Z,13.80
2023-05-02T04:38:48.580Z,13.80
2023-05-02T04:41:17.366Z,13.80
2023-05-02T04:43:47.108Z,13.90
2023-05-02T04:46:15.173Z,13.80
2023-05-02T04:48:43.261Z,13.90
2023-05-02T04:51:11.696Z,13.80
2023-05-02T04:53:39.874Z,13.90
2023-05-02T04:56:08.468Z,13.90
2023-05-02T04:58:36.520Z,13.90
2023-05-02T05:01:06.315Z,13.90
2023-05-02T05:03:34.472Z,13.90
2023-05-02T05:06:03.477Z,14.00
2023-05-02T05:08:31.917Z,14.00
2023-05-02T05:10:59.947Z,14.00
2023-05-02T05:13:28.440Z,14.00
2023-05-02T05:15:56.519Z,14.10
2023-05-02T05:18:26.015Z,14.10
2023-05-02T05:20:54.054Z,14.10
2023-05-02T05:23:22.160Z,14.10
2023-05-02T05:25:50.212Z,14.10
2023-05-02T05:28:18.771Z,14.20
2023-05-02T05:30:46.946Z,14.20
2023-05-02T05:33:15.183Z,14.30
2023-05-02T05:35:44.631Z,14.30
2023-05-02T05:38:12.658Z,14.40
2023-05-02T05:40:40.669Z,14.40
2023-05-02T05:43:08.962Z,14.50
2023-05-02T05:45:36.989Z,14.50
2023-05-02T05:48:05.349Z,14.50
2023-05-02T05:50:33.400Z,14.60
2023-05-02T05:53:03.080Z,14.60
2023-05-02T05:55:31.132Z,14.60
2023-05-02T05:57:59.176Z,14.70
2023-05-02T06:00:27.209Z,14.70
2023-05-02T06:02:55.306Z,14.70
2023-05-02T06:05:23.428Z,14.70
2023-05-02T06:07:51.484Z,14.80
2023-05-02T06:10:20.970Z,14.90
2023-05-02T06:12:49.421Z,14.90
2023-05-02T06:15:17.661Z,15.00
2023-05-02T06:17:45.941Z,15.10
2023-05-02T06:20:14.621Z,15.10
2023-05-02T06:22:43.680Z,15.20
2023-05-02T06:25:11.701Z,15.20
2023-05-02T06:27:41.208Z,15.30
2023-05-02T06:30:10.246Z,15.30
2023-05-02T06:32:38.399Z,15.40
2023-05-02T06:35:07.218Z,15.40
2023-05-02T06:37:36.012Z,15.40
2023-05-02T06:40:05.446Z,15.50
2023-05-02T06:42:33.495Z,15.50
2023-05-02T06:45:02.873Z,15.50
2023-05-02T06:47:30.958Z,15.50
2023-05-02T06:49:59.244Z,15.50
2023-05-02T06:52:27.490Z,15.60
2023-05-02T06:54:55.532Z,15.60
2023-05-02T06:57:23.666Z,15.60
2023-05-02T06:59:51.730Z,15.70
2023-05-02T07:02:22.313Z,15.70
2023-05-02T07:04:50.520Z,15.70
2023-05-02T07:07:20.562Z,15.80
2023-05-02T07:09:48.743Z,15.90
2023-05-02T07:12:16.771Z,15.90
2023-05-02T07:14:46.874Z,15.90
2023-05-02T07:17:15.805Z,15.90
2023-05-02T07:19:45.732Z,16.00
2023-05-02T07:22:14.069Z,16.00
2023-05-02T07:24:42.945Z,16.00
2023-05-02T07:27:11.730Z,16.00
2023-05-02T07:29:40.321Z,16.10
2023-05-02T07:32:08.375Z,16.10
2023-05-02T07:34:36.489Z,16.10
2023-05-02T07:37:05.954Z,16.20
2023-05-02T07:39:34.613Z,16.20
2023-05-02T07:42:03.727Z,16.30
2023-05-02T07:44:33.373Z,16.30
2023-05-02T07:47:01.504Z,16.40
2023-05-02T07:49:29.548Z,16.50
2023-05-02T07:51:57.602Z,16.50
2023-05-02T07:54:27.731Z,16.60
2023-05-02T07:56:58.233Z,16.60
2023-05-02T07:59:26.432Z,16.70
2023-05-02T08:01:54.596Z,16.70
2023-05-02T08:04:22.867Z,16.80
2023-05-02T08:06:51.035Z,16.90
2023-05-02T08:09:19.190Z,17.00
2023-05-02T08:11:48.876Z,17.00
2023-05-02T08:14:17.411Z,17.10
2023-05-02T08:16:46.570Z,17.10
2023-05-02T08:19:15.010Z,17.10
2023-05-02T08:21:43.871Z,17.20
2023-05-02T08:24:11.914Z,17.20
2023-05-02T08:26:39.958Z,17.20
2023-05-02T08:29:11.570Z,17.20
2023-05-02T08:31:39.776Z,17.20
2023-05-02T08:34:07.848Z,17.20
2023-05-02T08:36:37.244Z,17.20
2023-05-02T08:39:07.968Z,17.20
2023-05-02T08:41:36.264Z,17.20
2023-05-02T08:44:05.032Z,17.20
2023-05-02T08:46:37.121Z,17.20
2023-05-02T08:49:06.545Z,17.20
2023-05-02T08:51:36.684Z,17.20
2023-05-02T08:54:05.390Z,17.30
2023-05-02T08:56:34.424Z,17.30
2023-05-02T08:59:02.503Z,17.40
2023-05-02T09:01:32.187Z,17.30
2023-05-02T09:04:01.675Z,17.40
2023-05-02T09:06:30.248Z,17.40
2023-05-02T09:09:01.820Z,17.40
2023-05-02T09:11:31.446Z,17.40
2023-05-02T09:14:04.015Z,17.50
2023-05-02T09:16:40.371Z,17.60
2023-05-02T09:19:10.899Z,17.70
2023-05-02T09:21:41.405Z,17.70
2023-05-02T09:24:18.422Z,17.80
2023-05-02T09:26:58.735Z,17.90
2023-05-02T09:29:28.379Z,17.90
2023-05-02T09:31:56.975Z,17.80
2023-05-02T09:34:26.472Z,17.80
2023-05-02T09:36:55.006Z,17.80
2023-05-02T09:39:26.066Z,17.90
2023-05-02T09:41:54.818Z,17.90
2023-05-02T09:44:24.492Z,18.00
2023-05-02T09:46:54.769Z,18.10
2023-05-02T09:49:41.005Z,18.10
2023-05-02T09:52:13.777Z,18.30
2023-05-02T09:54:41.885Z,18.30
2023-05-02T09:57:11.083Z,18.40
2023-05-02T09:59:41.127Z,18.50
2023-05-02T10:02:11.652Z,18.50
2023-05-02T10:04:42.990Z,18.60
2023-05-02T10:07:11.521Z,18.70
2023-05-02T10:09:44.259Z,18.80
2023-05-02T10:12:16.834Z,18.90
2023-05-02T10:14:50.815Z,19.00
2023-05-02T10:17:23.471Z,19.00
2023-05-02T10:19:58.086Z,19.00
2023-05-02T10:22:27.650Z,19.10
2023-05-02T10:24:56.180Z,19.10
2023-05-02T10:27:24.345Z,19.10
2023-05-02T10:29:52.947Z,19.10
2023-05-02T10:32:23.221Z,19.10
2023-05-02T10:34:53.735Z,19.10
2023-05-02T10:37:22.163Z,19.20
2023-05-02T10:39:51.128Z,19.20
2023-05-02T10:42:20.701Z,19.20
2023-05-02T10:44:50.445Z,19.30
2023-05-02T10:47:22.498Z,19.30
2023-05-02T10:49:56.737Z,19.30
2023-05-02T10:52:29.764Z,19.30
2023-05-02T10:55:17.909Z,19.30
2023-05-02T10:58:22.357Z,19.40
2023-05-02T11:00:50.530Z,19.40
2023-05-02T11:03:51.904Z,19.40
2023-05-02T11:06:21.453Z,19.40
2023-05-02T11:08:49.611Z,19.40
2023-05-02T11:11:45.227Z,19.50
2023-05-02T11:14:33.888Z,19.50
2023-05-02T11:17:11.717Z,19.50
2023-05-02T11:20:25.759Z,19.60
2023-05-02T11:22:56.802Z,19.50
2023-05-02T11:25:38.649Z,19.60
2023-05-02T11:28:08.248Z,19.60
2023-05-02T11:30:41.764Z,19.60
2023-05-02T11:33:17.692Z,19.70
2023-05-02T11:35:48.035Z,19.70
2023-05-02T11:38:22.256Z,19.80
2023-05-02T11:40:58.600Z,19.80
2023-05-02T11:43:30.671Z,19.90
2023-05-02T11:46:00.783Z,19.90
2023-05-02T11:48:29.143Z,20.00
2023-05-02T11:50:59.057Z,20.00
2023-05-02T11:53:30.121Z,20.00
2023-05-02T11:56:01.017Z,20.00
2023-05-02T11:58:32.404Z,20.00
2023-05-02T12:01:12.495Z,20.00
2023-05-02T12:03:40.738Z,19.90
2023-05-02T12:06:13.591Z,19.80
2023-05-02T12:08:44.487Z,19.70
2023-05-02T12:11:14.900Z,19.60
2023-05-02T12:13:47.752Z,19.30
2023-05-02T12:16:16.186Z,19.10
2023-05-02T12:18:44.557Z,18.90
2023-05-02T12:21:12.866Z,18.70
2023-05-02T12:23:42.239Z,18.50
2023-05-02T12:26:24.310Z,18.40
2023-05-02T12:28:54.725Z,18.30
2023-05-02T12:31:23.744Z,18.30
2023-05-02T12:33:52.605Z,18.20
2023-05-02T12:36:21.006Z,18.20
2023-05-02T12:38:55.198Z,18.30
2023-05-02T12:41:34.228Z,18.30
2023-05-02T12:44:02.816Z,18.40
2023-05-02T12:46:31.915Z,18.50
2023-05-02T12:49:03.944Z,18.60
2023-05-02T12:51:33.256Z,18.70
2023-05-02T12:54:01.478Z,18.70
2023-05-02T12:56:32.527Z,18.80
2023-05-02T12:59:05.203Z,18.80
2023-05-02T13:01:34.567Z,18.80
2023-05-02T13:04:02.919Z,18.70
2023-05-02T13:06:31.404Z,18.70
2023-05-02T13:09:00.143Z,18.70
2023-05-02T13:11:28.273Z,18.70
2023-05-02T13:13:56.594Z,18.70
2023-05-02T13:16:26.176Z,18.70
2023-05-02T13:18:54.363Z,18.70
2023-05-02T13:21:22.806Z,18.60
2023-05-02T13:23:51.906Z,18.60
2023-05-02T13:26:19.968Z,18.60
2023-05-02T13:28:48.026Z,18.60
2023-05-02T13:31:16.170Z,18.60
2023-05-02T13:33:45.626Z,18.60
2023-05-02T13:36:13.810Z,18.60
2023-05-02T13:38:41.947Z,18.60
2023-05-02T13:41:10.134Z,18.60
2023-05-02T13:43:39.331Z,18.60
2023-05-02T13:46:07.597Z,18.60
2023-05-02T13:48:37.350Z,18.70
2023-05-02T13:51:06.818Z,18.70
2023-05-02T13:53:34.944Z,18.70
2023-05-02T13:56:04.182Z,18.70
2023-05-02T13:58:32.249Z,18.70
2023-05-02T14:01:01.167Z,18.70
2023-05-02T14:03:29.417Z,18.70
2023-05-02T14:05:57.570Z,18.70
2023-05-02T14:08:27.805Z,18.70
2023-05-02T14:10:55.904Z,18.70
2023-05-02T14:13:24.621Z,18.70
2023-05-02T14:15:52.909Z,18.70
2023-05-02T14:18:21.244Z,18.60
2023-05-02T14:20:49.298Z,18.60
2023-05-02T14:23:17.506Z,18.60
2023-05-02T14:25:46.942Z,18.60
2023-05-02T14:28:15.227Z,18.60
2023-05-02T14:30:43.326Z,18.60
2023-05-02T14:33:11.493Z,18.60
2023-05-02T14:35:39.532Z,18.60
2023-05-02T14:38:07.607Z,18.60
2023-05-02T14:40:35.710Z,18.60
2023-05-02T14:43:05.226Z,18.60
2023-05-02T14:45:33.386Z,18.60
2023-05-02T14:48:01.558Z,18.60
2023-05-02T14:50:29.605Z,18.60
2023-05-02T14:52:57.630Z,18.60
2023-05-02T14:55:25.740Z,18.60
2023-05-02T14:57:54.990Z,18.60
2023-05-02T15:00:25.641Z,18.50
2023-05-02T15:02:53.725Z,18.50
2023-05-02T15:05:21.936Z,18.50
2023-05-02T15:07:50.045Z,18.50
2023-05-02T15:10:18.092Z,18.50
2023-05-02T15:12:50.641Z,18.40
2023-05-02T15:15:18.706Z,18.40
2023-05-02T15:17:48.165Z,18.40
2023-05-02T15:20:16.268Z,18.40
2023-05-02T15:22:44.413Z,18.30
2023-05-02T15:25:12.569Z,18.30
2023-05-02T15:27:40.606Z,18.20
2023-05-02T15:30:09.940Z,18.20
2023-05-02T15:32:38.007Z,18.20
2023-05-02T15:35:08.936Z,18.10
2023-05-02T15:37:37.219Z,18.10
2023-05-02T15:40:06.657Z,18.10
2023-05-02T15:42:37.013Z,18.10
2023-05-02T15:45:06.145Z,18.10
2023-05-02T15:47:34.240Z,18.10
2023-05-02T15:50:02.822Z,18.00
2023-05-02T15:52:32.471Z,18.00
2023-05-02T15:55:01.625Z,18.00
2023-05-02T15:57:29.895Z,18.00
2023-05-02T15:59:57.936Z,18.00
2023-05-02T16:02:26.069Z,18.00
2023-05-02T16:04:54.105Z,18.00
2023-05-02T16:07:22.158Z,18.00
2023-05-02T16:09:51.951Z,17.90
2023-05-02T16:12:20.005Z,17.90
2023-05-02T16:14:48.048Z,17.80
2023-05-02T16:17:16.578Z,17.70
2023-05-02T16:19:44.942Z,17.70
2023-05-02T16:22:13.047Z,17.60
2023-05-02T16:24:41.282Z,17.50
2023-05-02T16:27:10.819Z,17.40
2023-05-02T16:29:38.828Z,17.40
2023-05-02T16:32:08.209Z,17.30
2023-05-02T16:34:37.237Z,17.30
2023-05-02T16:37:05.448Z,17.30
2023-05-02T16:39:34.774Z,17.20
2023-05-02T16:42:02.880Z,17.20
2023-05-02T16:44:32.500Z,17.10
2023-05-02T16:47:01.048Z,17.10
2023-05-02T16:49:29.169Z,17.10
2023-05-02T16:51:57.737Z,17.00
2023-05-02T16:54:26.128Z,17.00
2023-05-02T16:56:54.377Z,16.90
2023-05-02T16:59:22.416Z,16.90
2023-05-02T17:01:51.840Z,16.90
2023-05-02T17:04:21.472Z,16.90
2023-05-02T17:06:49.555Z,16.90
2023-05-02T17:09:18.492Z,16.80
2023-05-02T17:11:46.578Z,16.80
2023-05-02T17:14:15.422Z,16.70
2023-05-02T17:16:43.484Z,16.70
2023-05-02T17:19:12.951Z,16.70
2023-05-02T17:21:41.261Z,16.60
2023-05-02T17:24:10.027Z,16.60
2023-05-02T17:26:38.146Z,16.60
2023-05-02T17:29:06.205Z,16.50
2023-05-02T17:31:34.321Z,16.50
2023-05-02T17:34:02.537Z,16.40
2023-05-02T17:36:32.868Z,16.40
2023-05-02T17:39:01.109Z,16.30
2023-05-02T17:41:29.203Z,16.20
2023-05-02T17:43:57.227Z,16.20
2023-05-02T17:46:25.879Z,16.10
2023-05-02T17:48:53.967Z,16.10
2023-05-02T17:51:22.024Z,16.00
2023-05-02T17:53:53.495Z,16.00
2023-05-02T17:56:21.681Z,15.90
2023-05-02T17:58:49.813Z,15.80
2023-05-02T18:01:17.893Z,15.80
2023-05-02T18:03:48.125Z,15.70
2023-05-02T18:06:17.656Z,15.70
2023-05-02T18:08:46.285Z,15.60
2023-05-02T18:11:20.179Z,15.60
2023-05-02T18:13:49.478Z,15.50
2023-05-02T18:16:17.565Z,15.40
2023-05-02T18:18:46.453Z,15.40
2023-05-02T18:21:22.064Z,15.30
2023-05-02T18:23:50.153Z,15.20
2023-05-02T18:26:19.566Z,15.20
2023-05-02T18:28:53.047Z,15.10
2023-05-02T18:31:21.356Z,15.10
2023-05-02T18:33:49.579Z,15.00
2023-05-02T18:36:20.663Z,14.90
2023-05-02T18:38:48.766Z,14.80
2023-05-02T18:41:17.523Z,14.80
2023-05-02T18:43:46.947Z,14.80
2023-05-02T18:46:15.044Z,14.70
2023-05-02T18:48:43.448Z,14.70
2023-05-02T18:51:11.576Z,14.60
2023-05-02T18:53:39.634Z,14.60
2023-05-02T18:56:13.525Z,14.50
2023-05-02T18:58:42.041Z,14.40
2023-05-02T19:01:15.849Z,14.40
2023-05-02T19:03:44.374Z,14.30
2023-05-02T19:06:12.790Z,14.20
2023-05-02T19:08:41.019Z,14.20
2023-05-02T19:11:09.252Z,14.20
2023-05-02T19:13:37.446Z,14.10
2023-05-02T19:16:05.886Z,14.00
2023-05-02T19:18:35.334Z,14.00
2023-05-02T19:21:12.273Z,14.00
2023-05-02T19:23:41.477Z,13.90
2023-05-02T19:26:13.229Z,13.90
2023-05-02T19:28:41.577Z,13.80
2023-05-02T19:31:10.924Z,13.80
2023-05-02T19:33:41.555Z,13.80
2023-05-02T19:36:09.682Z,13.70
2023-05-02T19:38:37.825Z,13.70
2023-05-02T19:41:06.172Z,13.70
2023-05-02T19:43:34.635Z,13.60
2023-05-02T19:46:02.982Z,13.60
2023-05-02T19:48:31.104Z,13.50
2023-05-02T19:51:03.133Z,13.50
2023-05-02T19:53:35.028Z,13.50
2023-05-02T19:56:05.609Z,13.40
2023-05-02T19:58:34.490Z,13.40
2023-05-02T20:01:03.390Z,13.30
2023-05-02T20:03:32.323Z,13.30
2023-05-02T20:06:02.175Z,13.20
2023-05-02T20:08:31.610Z,13.20
2023-05-02T20:11:01.197Z,13.20
2023-05-02T20:13:30.532Z,13.10
2023-05-02T20:15:59.883Z,13.10
2023-05-02T20:18:32.869Z,13.00
2023-05-02T20:21:05.111Z,13.00
2023-05-02T20:23:34.903Z,12.90
2023-05-02T20:26:05.854Z,13.00
2023-05-02T20:28:37.712Z,12.90
2023-05-02T20:31:08.096Z,12.90
2023-05-02T20:33:45.373Z,12.90
2023-05-02T20:36:18.486Z,12.80
2023-05-02T20:38:51.485Z,12.80
2023-05-02T20:41:21.513Z,12.80
2023-05-02T20:43:50.702Z,12.70
2023-05-02T20:46:25.187Z,12.70
2023-05-02T20:48:55.644Z,12.60
2023-05-02T20:51:30.035Z,12.60
2023-05-02T20:54:05.626Z,12.60
2023-05-02T20:56:35.623Z,12.50
2023-05-02T20:59:07.253Z,12.50
2023-05-02T21:01:38.816Z,12.50
2023-05-02T21:04:09.392Z,12.40
2023-05-02T21:06:41.412Z,12.40
2023-05-02T21:09:12.382Z,12.30
2023-05-02T21:11:42.031Z,12.30
2023-05-02T21:14:12.874Z,12.30
2023-05-02T21:16:45.431Z,12.20
2023-05-02T21:19:14.803Z,12.20
2023-05-02T21:21:46.201Z,12.20
2023-05-02T21:24:16.446Z,12.20
2023-05-02T21:26:46.079Z,12.10
2023-05-02T21:29:26.525Z,12.10
2023-05-02T21:31:55.162Z,12.00
2023-05-02T21:34:25.815Z,12.00
2023-05-02T21:36:59.747Z,12.00
2023-05-02T21:39:32.386Z,11.90
2023-05-02T21:42:03.879Z,11.90
2023-05-02T21:44:36.830Z,11.90
2023-05-02T21:47:08.137Z,11.80
2023-05-02T21:49:50.512Z,11.80
2023-05-02T21:52:21.741Z,11.80
2023-05-02T21:54:56.340Z,11.80
2023-05-02T21:57:30.178Z,11.70
2023-05-02T22:00:07.756Z,11.70
2023-05-02T22:02:39.398Z,11.70
2023-05-02T22:05:09.740Z,11.70
2023-05-02T22:07:44.994Z,11.60
2023-05-02T22:10:18.938Z,11.60
2023-05-02T22:12:50.397Z,11.60
2023-05-02T22:15:26.786Z,11.60
2023-05-02T22:17:57.526Z,11.60
2023-05-02T22:20:31.537Z,11.60
2023-05-02T22:23:02.372Z,11.60
2023-05-02T22:25:50.291Z,11.50
2023-05-02T22:28:20.048Z,11.50
2023-05-02T22:30:50.910Z,11.50
2023-05-02T22:33:21.442Z,11.40
2023-05-02T22:35:52.961Z,11.40
2023-05-02T22:38:24.200Z,11.40
2023-05-02T22:41:02.273Z,11.40
2023-05-02T22:43:34.850Z,11.40
2023-05-02T22:46:11.263Z,11.30
2023-05-02T22:48:44.489Z,11.30
2023-05-02T22:51:13.886Z,11.30
2023-05-02T22:53:46.210Z,11.30
2023-05-02T22:56:14.259Z,11.20
2023-05-02T22:58:42.317Z,11.20
2023-05-02T23:01:10.383Z,11.20
2023-05-02T23:03:38.502Z,11.20
2023-05-02T23:06:06.798Z,11.10
2023-05-02T23:08:35.229Z,11.10
2023-05-02T23:11:04.691Z,11.10
2023-05-02T23:13:32.774Z,11.10
2023-05-02T23:16:01.598Z,11.10
2023-05-02T23:18:29.691Z,11.00
2023-05-02T23:20:57.785Z,11.00
2023-05-02T23:23:26.449Z,11.00
2023-05-02T23:25:54.524Z,11.00
2023-05-02T23:28:23.931Z,10.90
2023-05-02T23:30:52.363Z,10.90
2023-05-02T23:33:20.516Z,10.90
2023-05-02T23:35:48.822Z,10.80
2023-05-02T23:38:17.281Z,10.80
2023-05-02T23:40:45.530Z,10.80
2023-05-02T23:43:13.931Z,10.70
2023-05-02T23:45:43.419Z,10.70
2023-05-02T23:48:11.574Z,10.70
2023-05-02T23:50:39.809Z,10.60
2023-05-02T23:53:08.292Z,10.60
2023-05-02T23:55:36.490Z,10.60
2023-05-02T23:58:04.563Z,10.50
